Time;durP1;ratioP1;P1;durP2;ratioP2;P2;SDS_P1;SDS_P2;PMS_P1;PMS_P2;Temp;Humidity;BMP_temperature;BMP_pressure;BME280_temperature;BME280_humidity;BME280_pressure;Samples;Min_cycle;Max_cycle;Signal;HPM_P1;HPM_P2
2022/10/20 00:00:05;;;;;;;5.47;3.30;;;6.40;99.90;;;;;;4170267;28;20519;-79
2022/10/20 00:02:07;;;;;;;6.20;4.03;;;6.40;99.90;;;;;;4171608;28;21070;-78
2022/10/20 00:04:09;;;;;;;5.30;3.10;;;6.40;99.90;;;;;;4171512;28;20450;-78
2022/10/20 00:06:15;;;;;;;5.07;3.20;;;6.30;99.90;;;;;;4172864;28;20967;-79
2022/10/20 00:08:17;;;;;;;4.27;3.00;;;6.30;99.90;;;;;;4162650;28;20516;-78
2022/10/20 00:10:18;;;;;;;4.63;3.33;;;6.30;99.90;;;;;;4153626;28;20509;-78
2022/10/20 00:12:20;;;;;;;5.57;3.40;;;6.30;99.90;;;;;;4169388;28;20450;-79
2022/10/20 00:14:22;;;;;;;3.70;2.70;;;6.30;99.90;;;;;;4171206;28;20542;-79
2022/10/20 00:16:26;;;;;;;5.00;3.13;;;6.30;99.90;;;;;;4154724;28;20539;-78
2022/10/20 00:18:28;;;;;;;5.03;3.30;;;6.30;99.90;;;;;;4174854;28;20539;-78
2022/10/20 00:20:30;;;;;;;4.93;2.77;;;6.20;99.90;;;;;;4169731;28;20573;-78
2022/10/20 00:22:33;;;;;;;5.20;3.20;;;6.20;99.90;;;;;;4155388;28;20493;-78
2022/10/20 00:24:35;;;;;;;5.27;3.20;;;6.20;99.90;;;;;;4166503;28;20479;-78
2022/10/20 00:26:37;;;;;;;4.10;2.90;;;6.20;99.90;;;;;;4173266;28;20450;-79
2022/10/20 00:28:39;;;;;;;4.17;3.20;;;6.20;99.90;;;;;;4155951;28;20498;-78
2022/10/20 00:30:41;;;;;;;5.40;3.00;;;6.20;99.90;;;;;;4171328;28;20493;-78
2022/10/20 00:32:43;;;;;;;5.03;2.83;;;6.10;99.90;;;;;;4175688;28;20572;-78
2022/10/20 00:34:45;;;;;;;4.93;2.90;;;6.20;99.90;;;;;;4171345;28;20489;-78
2022/10/20 00:36:46;;;;;;;4.53;3.30;;;6.20;99.90;;;;;;4170438;28;20499;-79
2022/10/20 00:38:50;;;;;;;6.40;3.10;;;6.10;99.90;;;;;;4174427;28;20505;-78
2022/10/20 00:40:53;;;;;;;4.93;3.43;;;6.10;99.90;;;;;;4173495;28;20478;-78
2022/10/20 00:42:54;;;;;;;4.53;3.30;;;6.10;99.90;;;;;;4169737;28;21262;-79
2022/10/20 00:44:58;;;;;;;4.70;2.93;;;6.20;99.90;;;;;;4167812;28;20509;-79
2022/10/20 00:47:01;;;;;;;4.53;2.90;;;6.10;99.90;;;;;;4170981;28;20558;-78
2022/10/20 00:49:12;;;;;;;5.13;3.30;;;6.10;99.90;;;;;;4154966;28;20522;-78
2022/10/20 00:51:16;;;;;;;3.80;2.77;;;6.10;99.90;;;;;;4172962;28;20568;-78
2022/10/20 00:53:20;;;;;;;4.10;2.80;;;6.10;99.90;;;;;;4154298;28;21105;-79
2022/10/20 00:55:26;;;;;;;5.20;3.00;;;6.10;99.90;;;;;;4153238;28;21046;-78
2022/10/20 00:57:30;;;;;;;3.40;2.70;;;6.10;99.90;;;;;;4171241;28;20454;-78
2022/10/20 00:59:35;;;;;;;4.40;3.13;;;6.20;99.90;;;;;;4175337;28;20592;-79
2022/10/20 01:01:38;;;;;;;5.27;3.20;;;6.10;99.90;;;;;;4153839;28;20606;-78
2022/10/20 01:03:45;;;;;;;5.37;3.30;;;6.10;99.90;;;;;;4172720;28;20442;-78
2022/10/20 01:05:47;;;;;;;5.13;3.10;;;6.00;99.90;;;;;;4169421;28;20489;-78
2022/10/20 01:07:49;;;;;;;4.77;2.70;;;6.00;99.90;;;;;;4167557;28;20499;-78
2022/10/20 01:09:51;;;;;;;5.73;2.80;;;6.00;99.90;;;;;;4171375;28;20470;-79
2022/10/20 01:12:06;;;;;;;4.63;3.00;;;6.00;99.90;;;;;;4172214;28;20461;-78
2022/10/20 01:14:22;;;;;;;4.20;2.93;;;6.50;99.90;;;;;;4167095;28;20485;-78
2022/10/20 01:16:32;;;;;;;3.77;2.70;;;6.00;99.90;;;;;;4171031;28;20545;-77
2022/10/20 01:18:42;;;;;;;4.07;2.90;;;6.00;99.90;;;;;;4173828;28;20493;-78
2022/10/20 01:21:17;;;;;;;4.97;3.30;;;6.00;99.90;;;;;;4173020;28;20532;-78
2022/10/20 01:23:48;;;;;;;5.40;3.37;;;5.90;99.90;;;;;;4165625;28;20461;-79
2022/10/20 01:26:01;;;;;;;4.07;2.97;;;5.90;99.90;;;;;;4176364;28;20488;-78
2022/10/20 01:28:10;;;;;;;4.40;3.20;;;5.90;99.90;;;;;;4177863;28;20458;-77
2022/10/20 01:30:16;;;;;;;4.80;3.53;;;5.90;99.90;;;;;;4168050;28;20539;-78
2022/10/20 01:32:23;;;;;;;5.40;3.50;;;5.90;99.90;;;;;;4151486;28;21018;-77
2022/10/20 01:34:32;;;;;;;4.63;3.30;;;5.80;99.90;;;;;;4152083;28;20481;-78
2022/10/20 01:36:39;;;;;;;5.23;3.63;;;5.90;99.90;;;;;;4165624;28;21021;-78
2022/10/20 01:38:45;;;;;;;4.83;3.17;;;5.80;99.90;;;;;;4169032;28;20965;-78
2022/10/20 01:40:52;;;;;;;6.23;3.70;;;5.80;99.90;;;;;;4152406;28;20528;-78
2022/10/20 01:42:58;;;;;;;4.77;3.23;;;5.80;99.90;;;;;;4171682;28;20521;-78
2022/10/20 01:45:04;;;;;;;5.60;3.60;;;5.80;99.90;;;;;;4167739;28;20878;-78
2022/10/20 01:47:08;;;;;;;5.73;3.47;;;5.80;99.90;;;;;;4171419;28;20454;-77
2022/10/20 01:49:11;;;;;;;9.93;3.73;;;6.50;99.90;;;;;;4171294;28;21454;-79
2022/10/20 01:51:13;;;;;;;5.80;3.50;;;5.80;99.90;;;;;;4165449;28;20492;-78
2022/10/20 01:53:15;;;;;;;6.70;3.87;;;5.70;99.90;;;;;;4172921;28;20476;-78
2022/10/20 01:55:18;;;;;;;5.13;3.37;;;5.90;99.90;;;;;;4151155;28;20477;-78
2022/10/20 01:57:35;;;;;;;5.47;3.40;;;5.70;99.90;;;;;;4169700;28;21084;-78
2022/10/20 01:59:48;;;;;;;5.27;3.63;;;5.80;99.90;;;;;;4167097;28;20485;-78
2022/10/20 02:02:08;;;;;;;7.17;3.87;;;5.80;99.90;;;;;;4150060;28;20551;-77
2022/10/20 02:04:11;;;;;;;6.40;3.80;;;5.70;99.90;;;;;;4159901;28;20590;-78
2022/10/20 02:06:23;;;;;;;5.10;3.67;;;5.70;99.90;;;;;;4160161;28;20531;-78
2022/10/20 02:08:32;;;;;;;5.77;3.63;;;5.70;99.90;;;;;;4152750;28;20459;-77
2022/10/20 02:10:41;;;;;;;5.50;3.40;;;5.60;99.90;;;;;;4167363;28;20513;-78
2022/10/20 02:12:48;;;;;;;5.73;3.63;;;5.70;99.90;;;;;;4160049;28;20547;-78
2022/10/20 02:14:51;;;;;;;4.83;3.17;;;5.70;99.90;;;;;;4151791;28;21019;-77
2022/10/20 02:16:58;;;;;;;5.53;3.60;;;5.60;99.90;;;;;;4169494;28;20454;-77
2022/10/20 02:19:01;;;;;;;3.80;3.00;;;5.60;99.90;;;;;;4168811;28;20511;-78
2022/10/20 02:21:04;;;;;;;4.63;3.30;;;5.60;99.90;;;;;;4169302;28;20491;-78
2022/10/20 02:23:06;;;;;;;4.17;2.87;;;5.60;99.90;;;;;;4154381;28;21001;-78
2022/10/20 02:25:11;;;;;;;6.00;3.20;;;5.50;99.90;;;;;;4163469;28;20459;-77
2022/10/20 02:27:15;;;;;;;4.57;3.00;;;5.60;99.90;;;;;;4169457;28;20939;-78
2022/10/20 02:29:22;;;;;;;4.63;2.80;;;5.50;99.90;;;;;;4166506;28;20512;-77
2022/10/20 02:31:25;;;;;;;3.70;2.53;;;5.50;99.90;;;;;;4168565;28;20469;-78
2022/10/20 02:33:30;;;;;;;6.03;3.63;;;5.50;99.90;;;;;;4169965;28;20505;-78
2022/10/20 02:35:33;;;;;;;4.37;3.00;;;5.50;99.90;;;;;;4171189;28;20485;-77
2022/10/20 02:37:34;;;;;;;4.67;2.90;;;5.50;99.90;;;;;;4170564;28;20459;-78
2022/10/20 02:39:36;;;;;;;5.17;2.97;;;5.40;99.90;;;;;;4170636;28;20473;-78
2022/10/20 02:41:41;;;;;;;4.93;3.03;;;5.60;99.90;;;;;;4169041;28;20453;-78
2022/10/20 02:43:43;;;;;;;4.33;2.93;;;5.40;99.90;;;;;;4171064;28;20460;-78
2022/10/20 02:45:44;;;;;;;3.80;2.70;;;5.40;99.90;;;;;;4151964;28;20468;-78
2022/10/20 02:47:48;;;;;;;4.47;2.90;;;5.40;99.90;;;;;;4168280;28;20446;-78
2022/10/20 02:49:51;;;;;;;3.57;2.67;;;5.40;99.90;;;;;;4168786;28;20485;-78
2022/10/20 02:51:53;;;;;;;4.37;2.93;;;5.40;99.90;;;;;;4153302;28;20915;-78
2022/10/20 02:53:55;;;;;;;3.70;2.70;;;5.30;99.90;;;;;;4166680;28;20450;-78
2022/10/20 02:55:57;;;;;;;5.83;3.00;;;5.30;99.90;;;;;;4170795;28;20544;-78
2022/10/20 02:57:59;;;;;;;3.70;2.60;;;5.30;99.90;;;;;;4151477;28;20504;-78
2022/10/20 03:00:01;;;;;;;3.90;2.70;;;5.30;99.90;;;;;;4168533;28;20471;-78
2022/10/20 03:02:03;;;;;;;4.73;2.97;;;5.30;99.90;;;;;;4167819;28;20958;-79
2022/10/20 03:04:05;;;;;;;5.00;2.97;;;5.30;99.90;;;;;;4148725;28;21070;-78
2022/10/20 03:06:09;;;;;;;3.90;2.50;;;5.20;99.90;;;;;;4170014;28;20533;-78
2022/10/20 03:08:12;;;;;;;3.97;2.90;;;5.20;99.90;;;;;;4151281;28;20462;-77
2022/10/20 03:10:14;;;;;;;4.17;2.57;;;5.20;99.90;;;;;;4149905;28;20502;-78
2022/10/20 03:12:16;;;;;;;4.13;2.60;;;5.20;99.90;;;;;;4168367;28;20437;-78
2022/10/20 03:14:17;;;;;;;5.23;2.80;;;5.20;99.90;;;;;;4154840;28;20553;-79
2022/10/20 03:16:20;;;;;;;4.03;2.60;;;5.20;99.90;;;;;;4171690;28;21277;-78
2022/10/20 03:18:21;;;;;;;4.07;2.73;;;5.20;99.90;;;;;;4174018;28;20461;-78
2022/10/20 03:20:23;;;;;;;4.03;3.00;;;5.20;99.90;;;;;;4169484;28;20485;-78
2022/10/20 03:22:26;;;;;;;3.87;2.70;;;5.10;99.90;;;;;;4162832;28;20563;-79
2022/10/20 03:24:28;;;;;;;3.37;2.30;;;5.00;99.90;;;;;;4172930;28;20455;-78
2022/10/20 03:26:30;;;;;;;4.37;2.70;;;5.10;99.90;;;;;;4171354;28;20449;-78
2022/10/20 03:28:32;;;;;;;4.23;2.67;;;5.10;99.90;;;;;;4154948;28;20496;-78
2022/10/20 03:30:34;;;;;;;4.33;2.87;;;5.10;99.90;;;;;;4174362;28;20475;-77
2022/10/20 03:32:36;;;;;;;3.67;2.70;;;5.10;99.90;;;;;;4171298;28;20548;-77
2022/10/20 03:34:38;;;;;;;3.37;2.67;;;5.00;99.90;;;;;;4173250;28;20556;-78
2022/10/20 03:36:39;;;;;;;4.03;2.87;;;5.00;99.90;;;;;;4171687;28;20449;-77
2022/10/20 03:38:43;;;;;;;3.93;2.80;;;4.90;99.90;;;;;;4171790;28;20481;-78
2022/10/20 03:40:45;;;;;;;3.87;2.80;;;4.90;99.90;;;;;;4172736;28;20521;-79
2022/10/20 03:42:47;;;;;;;4.00;2.90;;;5.00;99.90;;;;;;4159983;28;22233;-78
2022/10/20 03:44:49;;;;;;;5.03;3.07;;;4.90;99.90;;;;;;4170658;28;20542;-78
2022/10/20 03:46:51;;;;;;;4.40;3.10;;;4.90;99.90;;;;;;4155369;28;20471;-78
2022/10/20 03:48:53;;;;;;;4.83;2.50;;;4.90;99.90;;;;;;4156981;28;21010;-78
2022/10/20 03:50:55;;;;;;;4.53;2.87;;;4.90;99.90;;;;;;4168785;28;20904;-78
2022/10/20 03:52:57;;;;;;;3.63;2.63;;;4.90;99.90;;;;;;4153369;28;20486;-78
2022/10/20 03:55:02;;;;;;;3.87;2.73;;;4.80;99.90;;;;;;4152791;28;20468;-77
2022/10/20 03:57:06;;;;;;;6.03;3.27;;;4.80;99.90;;;;;;4154550;28;21009;-79
2022/10/20 03:59:10;;;;;;;6.67;2.83;;;4.80;99.90;;;;;;4154736;28;20491;-78
2022/10/20 04:01:14;;;;;;;5.27;3.20;;;4.80;99.90;;;;;;4171476;28;20861;-77
2022/10/20 04:03:16;;;;;;;5.60;3.00;;;4.80;99.90;;;;;;4170489;28;20528;-77
2022/10/20 04:05:20;;;;;;;6.50;3.40;;;4.80;99.90;;;;;;4150460;28;20469;-77
2022/10/20 04:07:22;;;;;;;6.13;3.33;;;4.80;99.90;;;;;;4172903;28;20536;-78
2022/10/20 04:09:24;;;;;;;5.87;3.60;;;4.70;99.90;;;;;;4168732;28;20551;-78
2022/10/20 04:11:27;;;;;;;4.80;2.93;;;4.70;99.90;;;;;;4155763;28;20829;-77
2022/10/20 04:13:29;;;;;;;5.13;3.50;;;4.70;99.90;;;;;;4174635;28;20463;-78
2022/10/20 04:15:31;;;;;;;5.03;3.37;;;4.70;99.90;;;;;;4177869;28;21033;-78
2022/10/20 04:17:32;;;;;;;5.53;3.23;;;4.70;99.90;;;;;;4166213;28;20493;-78
2022/10/20 04:19:34;;;;;;;5.80;3.37;;;4.70;99.90;;;;;;4171587;28;20850;-77
2022/10/20 04:21:36;;;;;;;4.00;2.97;;;5.50;99.90;;;;;;4152996;28;20952;-78
2022/10/20 04:23:38;;;;;;;5.03;3.17;;;4.60;99.90;;;;;;4173911;28;20914;-78
2022/10/20 04:25:44;;;;;;;4.30;3.10;;;4.60;99.90;;;;;;4170221;28;20859;-78
2022/10/20 04:27:47;;;;;;;4.20;3.07;;;4.60;99.90;;;;;;4171488;28;20512;-77
2022/10/20 04:29:49;;;;;;;4.83;3.53;;;4.70;99.90;;;;;;4170323;28;20457;-77
2022/10/20 04:31:53;;;;;;;5.00;3.13;;;4.60;99.90;;;;;;4172978;28;20539;-78
2022/10/20 04:33:55;;;;;;;5.47;3.20;;;4.60;99.90;;;;;;4176440;28;20483;-79
2022/10/20 04:35:58;;;;;;;5.83;3.40;;;4.60;99.90;;;;;;4150880;28;20471;-79
2022/10/20 04:38:00;;;;;;;4.90;3.10;;;4.50;99.90;;;;;;4170638;28;20458;-78
2022/10/20 04:40:02;;;;;;;6.57;3.30;;;4.50;99.90;;;;;;4168649;28;21011;-78
2022/10/20 04:42:03;;;;;;;5.87;3.30;;;4.50;99.90;;;;;;4169376;28;20441;-78
2022/10/20 04:44:07;;;;;;;5.83;3.60;;;4.50;99.90;;;;;;4166049;28;20512;-78
2022/10/20 04:46:10;;;;;;;6.50;3.53;;;4.50;99.90;;;;;;4170827;28;20864;-78
2022/10/20 04:48:12;;;;;;;7.03;3.70;;;4.50;99.90;;;;;;4170546;28;20962;-78
2022/10/20 04:50:17;;;;;;;5.90;3.70;;;4.40;99.90;;;;;;4152503;28;20569;-78
2022/10/20 04:52:19;;;;;;;6.17;3.47;;;4.40;99.90;;;;;;4166477;28;20458;-78
2022/10/20 04:54:21;;;;;;;6.37;4.13;;;4.40;99.90;;;;;;4170099;28;20845;-78
2022/10/20 04:56:26;;;;;;;5.77;3.47;;;4.40;99.90;;;;;;4152825;28;20498;-78
2022/10/20 04:58:28;;;;;;;6.97;4.10;;;4.40;99.90;;;;;;4169095;28;20548;-78
2022/10/20 05:00:31;;;;;;;6.83;3.83;;;4.40;99.90;;;;;;4169448;28;20836;-78
2022/10/20 05:02:33;;;;;;;5.47;3.73;;;4.40;99.90;;;;;;4162104;28;20865;-78
2022/10/20 05:04:35;;;;;;;5.47;3.60;;;4.40;99.90;;;;;;4171078;28;21025;-78
2022/10/20 05:06:37;;;;;;;6.73;3.60;;;4.40;99.90;;;;;;4148709;28;20924;-78
2022/10/20 05:08:39;;;;;;;6.67;3.60;;;4.40;99.90;;;;;;4147700;28;20495;-77
2022/10/20 05:10:42;;;;;;;6.30;4.00;;;4.40;99.90;;;;;;4168257;28;20496;-78
2022/10/20 05:12:44;;;;;;;6.10;3.57;;;4.40;99.90;;;;;;4150179;28;20438;-78
2022/10/20 05:14:46;;;;;;;7.90;3.80;;;4.40;99.90;;;;;;4169989;28;20449;-78
2022/10/20 05:16:49;;;;;;;6.00;3.70;;;4.40;99.90;;;;;;4153454;28;20494;-78
2022/10/20 05:18:52;;;;;;;6.70;4.00;;;4.40;99.90;;;;;;4152052;28;20494;-78
2022/10/20 05:20:53;;;;;;;7.60;4.53;;;4.30;99.90;;;;;;4172044;28;20488;-78
2022/10/20 05:22:55;;;;;;;7.33;3.83;;;4.30;99.90;;;;;;4174967;28;20837;-78
2022/10/20 05:24:57;;;;;;;6.17;3.80;;;4.30;99.90;;;;;;4172547;28;20449;-78
2022/10/20 05:26:59;;;;;;;6.70;3.93;;;4.40;99.90;;;;;;4155024;28;20526;-78
2022/10/20 05:29:03;;;;;;;7.33;4.03;;;4.30;99.90;;;;;;4173219;28;20590;-77
2022/10/20 05:31:06;;;;;;;7.03;4.37;;;4.30;99.90;;;;;;4170108;28;20583;-78
2022/10/20 05:33:11;;;;;;;6.30;4.00;;;4.30;99.90;;;;;;4177385;28;20483;-78
2022/10/20 05:35:13;;;;;;;6.53;3.90;;;4.30;99.90;;;;;;4177632;28;21033;-78
2022/10/20 05:37:14;;;;;;;7.37;4.33;;;4.30;99.90;;;;;;4174908;28;20481;-78
2022/10/20 05:39:16;;;;;;;7.93;4.33;;;4.20;99.90;;;;;;4156587;28;20486;-78
2022/10/20 05:41:21;;;;;;;6.77;3.97;;;4.20;99.90;;;;;;4155776;28;20520;-78
2022/10/20 05:43:22;;;;;;;8.33;5.17;;;4.20;99.90;;;;;;4154149;28;20479;-78
2022/10/20 05:45:24;;;;;;;7.60;4.37;;;4.20;99.90;;;;;;4154918;28;20465;-77
2022/10/20 05:47:29;;;;;;;8.47;4.50;;;4.20;99.90;;;;;;4173161;28;20461;-78
2022/10/20 05:49:35;;;;;;;9.67;4.57;;;4.20;99.90;;;;;;4154524;28;20535;-78
2022/10/20 05:51:40;;;;;;;8.87;4.77;;;4.20;99.90;;;;;;4173073;28;20484;-78
2022/10/20 05:53:42;;;;;;;9.57;4.80;;;4.20;99.90;;;;;;4153541;28;20959;-78
2022/10/20 05:55:44;;;;;;;9.97;5.40;;;4.20;99.90;;;;;;4169181;28;20449;-78
2022/10/20 05:57:49;;;;;;;9.37;4.83;;;4.20;99.90;;;;;;4169839;28;20456;-77
2022/10/20 05:59:50;;;;;;;9.07;5.20;;;4.30;99.90;;;;;;4172860;28;20487;-77
2022/10/20 06:01:52;;;;;;;11.27;5.07;;;4.30;99.90;;;;;;4156859;28;20529;-77
2022/10/20 06:03:56;;;;;;;8.50;5.07;;;4.30;99.90;;;;;;4159162;28;20561;-78
2022/10/20 06:06:00;;;;;;;8.50;5.10;;;4.30;99.90;;;;;;4184919;28;20512;-78
2022/10/20 06:08:02;;;;;;;9.37;4.87;;;4.30;99.90;;;;;;4179584;28;20492;-77
2022/10/20 06:10:04;;;;;;;8.20;5.00;;;4.30;99.90;;;;;;4158506;28;21232;-79
2022/10/20 06:12:07;;;;;;;8.47;5.03;;;4.30;99.90;;;;;;4172624;28;20544;-78
2022/10/20 06:14:10;;;;;;;11.30;5.47;;;4.30;99.90;;;;;;4156743;28;20465;-79
2022/10/20 06:16:13;;;;;;;7.90;4.90;;;4.30;99.90;;;;;;4155525;28;20463;-79
2022/10/20 06:18:15;;;;;;;10.03;5.70;;;4.30;99.90;;;;;;4157319;28;20463;-78
2022/10/20 06:20:17;;;;;;;8.83;5.33;;;4.30;99.90;;;;;;4153243;28;20477;-78
2022/10/20 06:22:20;;;;;;;9.03;5.27;;;4.40;99.90;;;;;;4152287;28;20451;-79
2022/10/20 06:24:22;;;;;;;10.07;6.07;;;4.40;99.90;;;;;;4172145;28;20591;-78
2022/10/20 06:26:39;;;;;;;8.77;5.57;;;4.30;99.90;;;;;;4151040;28;20543;-78
2022/10/20 06:28:41;;;;;;;9.70;5.37;;;4.30;99.90;;;;;;4153992;28;20481;-77
2022/10/20 06:30:43;;;;;;;8.70;5.73;;;4.30;99.90;;;;;;4156273;28;20974;-77
2022/10/20 06:32:45;;;;;;;9.23;6.00;;;4.30;99.90;;;;;;4163799;28;20469;-82
2022/10/20 06:34:46;;;;;;;9.83;5.40;;;4.30;99.90;;;;;;4166951;28;20449;-79
2022/10/20 06:36:51;;;;;;;9.43;5.30;;;4.40;99.90;;;;;;4166949;28;20463;-78
2022/10/20 06:38:55;;;;;;;9.90;5.70;;;4.40;99.90;;;;;;4152120;28;20495;-78
2022/10/20 06:41:00;;;;;;;10.27;5.70;;;4.40;99.90;;;;;;4172048;28;20783;-76
2022/10/20 06:43:02;;;;;;;11.30;5.57;;;4.40;99.90;;;;;;4154350;28;20834;-79
2022/10/20 06:45:05;;;;;;;10.97;5.83;;;4.40;99.90;;;;;;4155586;28;20493;-77
2022/10/20 06:47:09;;;;;;;9.03;5.40;;;4.40;99.90;;;;;;4177252;28;20452;-77
2022/10/20 06:49:11;;;;;;;11.50;5.80;;;4.50;99.90;;;;;;4173846;28;20884;-76
2022/10/20 06:51:15;;;;;;;8.40;4.73;;;4.50;99.90;;;;;;4159066;28;20496;-80
2022/10/20 06:53:17;;;;;;;8.47;5.20;;;4.50;99.90;;;;;;4172001;28;20448;-79
2022/10/20 06:55:20;;;;;;;8.73;5.50;;;4.50;99.90;;;;;;4159534;28;21011;-77
2022/10/20 06:57:22;;;;;;;10.67;5.80;;;4.60;99.90;;;;;;4170335;28;20446;-76
2022/10/20 06:59:24;;;;;;;9.87;5.40;;;4.60;99.90;;;;;;4170310;28;20473;-77
2022/10/20 07:01:27;;;;;;;10.17;5.77;;;4.60;99.90;;;;;;4156421;28;20492;-77
2022/10/20 07:03:30;;;;;;;10.83;5.97;;;4.70;99.90;;;;;;4177401;28;20576;-79
2022/10/20 07:05:34;;;;;;;8.43;5.10;;;4.70;99.90;;;;;;4172863;28;20466;-77
2022/10/20 07:07:36;;;;;;;9.30;5.57;;;4.70;99.90;;;;;;4153928;28;20458;-77
2022/10/20 07:09:38;;;;;;;10.67;5.90;;;4.80;99.90;;;;;;4176504;28;20568;-78
2022/10/20 07:11:42;;;;;;;8.70;5.50;;;4.80;99.90;;;;;;4179672;28;20465;-77
2022/10/20 07:13:44;;;;;;;9.33;5.63;;;4.80;99.90;;;;;;4174429;28;20488;-77
2022/10/20 07:15:46;;;;;;;9.47;5.13;;;4.80;99.90;;;;;;4176538;28;20511;-77
2022/10/20 07:17:48;;;;;;;9.23;5.43;;;4.90;99.90;;;;;;4173963;28;20455;-78
2022/10/20 07:19:50;;;;;;;9.03;5.53;;;4.90;99.90;;;;;;4156016;28;20588;-77
2022/10/20 07:21:52;;;;;;;9.33;5.50;;;4.90;99.90;;;;;;4172994;28;20464;-78
2022/10/20 07:23:55;;;;;;;10.30;6.07;;;5.00;99.90;;;;;;4179328;28;20534;-79
2022/10/20 07:26:01;;;;;;;9.60;4.93;;;5.00;99.90;;;;;;4174602;28;20918;-77
2022/10/20 07:28:04;;;;;;;11.17;6.20;;;5.10;99.90;;;;;;4153733;28;20498;-79
2022/10/20 07:30:07;;;;;;;11.33;5.87;;;5.10;99.90;;;;;;4169442;28;20555;-78
2022/10/20 07:32:09;;;;;;;11.53;6.43;;;5.20;99.90;;;;;;4173971;28;20468;-79
2022/10/20 07:34:13;;;;;;;9.77;5.63;;;5.20;99.90;;;;;;4153387;28;20451;-79
2022/10/20 07:36:16;;;;;;;9.27;5.37;;;5.30;99.90;;;;;;4171262;28;20445;-79
2022/10/20 07:38:18;;;;;;;10.37;5.50;;;5.30;99.90;;;;;;4157568;28;20460;-79
2022/10/20 07:40:20;;;;;;;11.67;6.33;;;5.40;99.90;;;;;;4171943;28;20474;-79
2022/10/20 07:42:22;;;;;;;10.40;6.23;;;5.40;99.90;;;;;;4153599;28;20991;-78
2022/10/20 07:44:25;;;;;;;12.70;7.13;;;5.50;99.90;;;;;;4175667;28;20542;-79
2022/10/20 07:46:27;;;;;;;12.30;6.73;;;5.50;99.90;;;;;;4157091;28;20464;-79
2022/10/20 07:48:29;;;;;;;12.20;6.70;;;5.60;99.90;;;;;;4176790;28;20564;-79
2022/10/20 07:50:31;;;;;;;11.00;6.60;;;5.60;99.90;;;;;;4175836;28;20469;-79
2022/10/20 07:52:35;;;;;;;14.07;7.20;;;5.70;99.90;;;;;;4154000;28;20455;-78
2022/10/20 07:54:37;;;;;;;10.50;6.40;;;5.70;99.90;;;;;;4152370;28;20541;-80
2022/10/20 07:56:41;;;;;;;10.77;6.27;;;5.80;99.90;;;;;;4172445;28;20558;-79
2022/10/20 07:58:43;;;;;;;11.50;6.87;;;6.40;99.90;;;;;;4154970;28;20981;-78
2022/10/20 08:00:46;;;;;;;10.93;6.40;;;5.90;99.90;;;;;;4169275;28;20516;-80
2022/10/20 08:02:48;;;;;;;13.20;7.83;;;6.00;99.90;;;;;;4170216;28;20510;-78
2022/10/20 08:04:50;;;;;;;12.77;7.33;;;6.00;99.90;;;;;;4173995;28;20517;-78
2022/10/20 08:06:52;;;;;;;10.67;6.23;;;6.10;99.90;;;;;;4170849;28;20489;-79
2022/10/20 08:08:54;;;;;;;11.83;6.67;;;6.20;99.90;;;;;;4170427;28;20481;-78
2022/10/20 08:10:57;;;;;;;12.20;6.30;;;6.30;99.90;;;;;;4154554;28;20449;-80
2022/10/20 08:13:00;;;;;;;11.00;6.50;;;6.30;99.90;;;;;;4159656;28;20451;-80
2022/10/20 08:15:03;;;;;;;11.07;6.37;;;6.40;99.90;;;;;;4156035;28;21056;-79
2022/10/20 08:17:06;;;;;;;10.63;6.73;;;6.40;99.90;;;;;;4176060;28;20454;-79
2022/10/20 08:19:08;;;;;;;10.90;5.93;;;6.50;99.90;;;;;;4158669;28;20515;-79
2022/10/20 08:21:17;;;;;;;11.60;6.93;;;6.50;99.90;;;;;;4180543;28;20457;-79
2022/10/20 08:23:19;;;;;;;11.93;6.57;;;6.60;99.90;;;;;;4158282;28;20934;-80
2022/10/20 08:25:21;;;;;;;13.37;7.10;;;6.70;99.90;;;;;;4157750;28;20498;-79
2022/10/20 08:27:23;;;;;;;10.87;6.90;;;6.70;99.90;;;;;;4159106;28;20890;-79
2022/10/20 08:29:25;;;;;;;12.10;7.03;;;6.80;99.90;;;;;;4173238;28;21048;-79
2022/10/20 08:31:28;;;;;;;10.53;6.50;;;6.80;99.90;;;;;;4156258;28;20462;-79
2022/10/20 08:33:31;;;;;;;10.57;6.20;;;6.80;99.90;;;;;;4157380;28;20483;-78
2022/10/20 08:35:34;;;;;;;10.27;6.03;;;6.90;99.90;;;;;;4176410;28;20454;-79
2022/10/20 08:37:36;;;;;;;9.20;6.03;;;6.90;99.90;;;;;;4177315;28;20471;-78
2022/10/20 08:39:38;;;;;;;15.63;7.40;;;7.00;99.90;;;;;;4174621;28;20468;-78
2022/10/20 08:41:44;;;;;;;9.63;5.97;;;7.00;99.90;;;;;;4174420;28;20955;-79
2022/10/20 08:43:47;;;;;;;9.67;6.07;;;7.00;99.90;;;;;;4175803;28;20495;-78
2022/10/20 08:45:49;;;;;;;11.37;6.00;;;7.10;99.90;;;;;;4155282;28;20469;-78
2022/10/20 08:47:54;;;;;;;10.63;6.03;;;7.20;99.90;;;;;;4177673;28;20545;-79
2022/10/20 08:49:58;;;;;;;10.30;6.07;;;7.10;99.90;;;;;;4170094;28;20544;-78
2022/10/20 08:52:01;;;;;;;9.90;6.37;;;7.20;99.90;;;;;;4175007;28;20931;-77
2022/10/20 08:54:03;;;;;;;10.17;6.43;;;7.20;99.90;;;;;;4171812;28;20818;-79
2022/10/20 08:56:06;;;;;;;13.97;7.27;;;7.30;99.90;;;;;;4156135;28;20485;-80
2022/10/20 08:58:12;;;;;;;11.80;6.70;;;7.30;99.90;;;;;;4152662;28;20497;-78
2022/10/20 09:00:18;;;;;;;9.20;5.83;;;7.40;99.90;;;;;;4171870;28;20913;-80
2022/10/20 09:02:21;;;;;;;10.57;6.90;;;7.40;99.90;;;;;;4153706;28;20454;-78
2022/10/20 09:04:27;;;;;;;10.33;6.80;;;7.50;99.90;;;;;;4173360;28;20483;-77
2022/10/20 09:06:30;;;;;;;10.20;7.00;;;7.50;99.90;;;;;;4149722;28;20550;-77
2022/10/20 09:08:36;;;;;;;9.23;6.10;;;7.60;99.90;;;;;;4177069;28;20459;-81
2022/10/20 09:10:41;;;;;;;10.30;6.50;;;7.60;99.90;;;;;;4155462;28;20484;-78
2022/10/20 09:12:45;;;;;;;11.83;6.93;;;7.70;99.90;;;;;;4171226;28;20504;-78
2022/10/20 09:14:47;;;;;;;10.20;6.33;;;7.70;99.90;;;;;;4170865;28;20468;-77
2022/10/20 09:16:49;;;;;;;11.43;6.63;;;7.80;99.90;;;;;;4154069;28;20541;-79
2022/10/20 09:18:55;;;;;;;11.03;6.50;;;7.80;99.90;;;;;;4155987;28;20560;-79
2022/10/20 09:21:00;;;;;;;9.67;6.33;;;7.90;99.90;;;;;;4170701;28;21230;-79
2022/10/20 09:23:04;;;;;;;10.43;6.37;;;7.90;99.90;;;;;;4171057;28;20537;-79
2022/10/20 09:25:07;;;;;;;11.53;6.60;;;8.30;99.90;;;;;;4170125;28;20496;-78
2022/10/20 09:27:23;;;;;;;10.30;6.07;;;8.10;99.90;;;;;;4154515;28;20457;-79
2022/10/20 09:29:36;;;;;;;8.63;5.40;;;8.20;99.90;;;;;;4156025;28;20474;-80
2022/10/20 09:31:40;;;;;;;7.47;4.97;;;8.30;99.90;;;;;;4155954;28;20451;-79
2022/10/20 09:33:42;;;;;;;8.40;5.23;;;8.40;99.90;;;;;;4176037;28;20453;-79
2022/10/20 09:35:47;;;;;;;8.10;4.83;;;8.40;99.90;;;;;;4155858;28;20499;-79
2022/10/20 09:38:05;;;;;;;7.20;4.87;;;8.50;99.90;;;;;;4157199;28;20482;-80
2022/10/20 09:40:16;;;;;;;6.30;4.53;;;8.60;99.90;;;;;;4170069;28;20482;-80
2022/10/20 09:42:22;;;;;;;9.50;4.33;;;8.70;99.90;;;;;;4172543;28;20460;-81
2022/10/20 09:44:25;;;;;;;6.23;4.30;;;8.80;99.90;;;;;;4172401;28;20228;-80
2022/10/20 09:46:30;;;;;;;8.43;4.70;;;8.80;99.90;;;;;;4158944;28;20451;-77
2022/10/20 09:48:35;;;;;;;5.53;3.97;;;8.90;99.90;;;;;;4154230;28;20213;-77
2022/10/20 09:50:40;;;;;;;6.43;4.13;;;9.00;99.90;;;;;;4170508;28;20216;-75
2022/10/20 09:52:47;;;;;;;8.00;4.40;;;9.10;99.90;;;;;;4152859;28;20541;-77
2022/10/20 09:54:51;;;;;;;5.07;3.47;;;9.30;99.90;;;;;;4168988;28;20213;-74
2022/10/20 09:56:54;;;;;;;4.90;3.40;;;9.30;99.90;;;;;;4169771;28;20206;-75
2022/10/20 09:58:57;;;;;;;5.63;3.60;;;9.30;99.90;;;;;;4168682;28;20692;-74
2022/10/20 10:01:02;;;;;;;7.00;3.77;;;9.40;99.90;;;;;;4167811;28;20221;-73
2022/10/20 10:03:19;;;;;;;3.97;3.27;;;9.50;99.90;;;;;;4173292;28;20237;-75
2022/10/20 10:05:22;;;;;;;4.67;3.20;;;9.60;99.90;;;;;;4173588;28;20222;-74
2022/10/20 10:07:31;;;;;;;8.07;3.30;;;9.70;99.90;;;;;;4172473;28;20211;-74
2022/10/20 10:09:35;;;;;;;5.93;3.60;;;9.80;99.90;;;;;;4170170;28;20218;-75
2022/10/20 10:11:38;;;;;;;9.83;3.70;;;9.90;99.90;;;;;;4169783;28;20215;-73
2022/10/20 10:13:45;;;;;;;4.83;3.20;;;10.00;99.90;;;;;;4169445;28;20575;-78
2022/10/20 10:15:47;;;;;;;7.20;3.63;;;10.20;99.90;;;;;;4175446;28;20211;-76
2022/10/20 10:17:49;;;;;;;4.93;2.80;;;10.20;99.90;;;;;;4155535;28;20319;-79
2022/10/20 10:19:51;;;;;;;5.20;3.17;;;10.40;99.90;;;;;;4152061;28;20244;-78
2022/10/20 10:21:56;;;;;;;6.27;3.07;;;10.40;99.90;;;;;;4172844;28;20739;-78
2022/10/20 10:24:01;;;;;;;6.63;3.20;;;10.50;99.90;;;;;;4169736;28;20207;-77
2022/10/20 10:26:24;;;;;;;4.57;3.20;;;10.60;99.90;;;;;;4171008;28;20252;-78
2022/10/20 10:28:35;;;;;;;4.67;2.60;;;10.80;99.90;;;;;;4162114;28;20223;-79
2022/10/20 10:30:38;;;;;;;3.97;2.77;;;10.90;99.90;;;;;;4156223;28;20699;-77
2022/10/20 10:32:44;;;;;;;4.00;2.87;;;11.00;99.90;;;;;;4157424;28;20277;-76
2022/10/20 10:35:12;;;;;;;3.87;2.63;;;11.10;99.90;;;;;;4161947;28;20228;-78
2022/10/20 10:37:16;;;;;;;3.73;2.60;;;11.20;99.90;;;;;;4154390;28;20314;-77
2022/10/20 10:39:18;;;;;;;4.67;2.80;;;11.30;99.90;;;;;;4161808;28;20237;-77
2022/10/20 10:41:27;;;;;;;5.77;2.70;;;11.40;99.90;;;;;;4160341;28;20693;-78
2022/10/20 10:43:38;;;;;;;3.93;2.53;;;11.50;99.90;;;;;;4149132;28;20565;-77
2022/10/20 10:45:45;;;;;;;3.20;2.13;;;11.60;99.90;;;;;;4162108;28;20258;-76
2022/10/20 10:48:24;;;;;;;5.30;2.50;;;11.70;99.90;;;;;;4156999;28;20210;-78
2022/10/20 10:50:30;;;;;;;4.23;2.80;;;11.80;99.90;;;;;;4156326;28;20233;-77
2022/10/20 10:52:39;;;;;;;4.47;2.50;;;12.00;99.90;;;;;;4160155;28;20722;-77